Airfield :
LOGIN :

Register | Disclaimer

   EN    FR    IT 

 










Legend :    VFR   Marginal VFR   IFR   Intensive IFR   Very Intensive IFR
Visi :
Ceiling :
>= 8 km
>= 3000ft
5 to 8 km
1000 to 3000 ft
1500m to 5 km
500 to 1000 ft
800 to 1500m
200 to 500 ft
< 800m
< 200 ft
Symbols :   Thunderstorms  Fog  Heavy snow  Heavy precipitations  Wind > 20 kt
SIGMETs :     Misc.  Thunderstorms  Icing  Turbulence  Mountain Waves  Volcanic Ashes







- Airport Elevation : 38 ft
- IATA code : TRE
- Download approach charts


EGPU - Tiree

CURRENT METAR :
  • 180420Z AUTO 24016KT 210V270 9000 FEW014/// 14/12 Q1008 RERA

EXPIRED METARs :
  • 180350Z AUTO 24017KT 8000 -RADZ NCD 14/12 Q1008
  • 180320Z AUTO 24017KT 210V270 8000 FEW014/// 14/12 Q1008
  • 180250Z AUTO 24017KT 9000 FEW031/// 14/12 Q1008
  • 180220Z AUTO 24017KT 200V270 9000 NCD 14/12 Q1008
  • 180150Z AUTO 24018KT 210V270 9000 NCD 14/12 Q1008

Expired Forecast.
No reported NOTAMs for that airfield.
1 SIGMET reported for the Scottish FIR (EGPX) :
 
Severe mountain waves
EGPX SIGMET 01 VALID 180330/180730 EGRR
EGPX SCOTTISH FIR SEV MTW FCST WI N5500 E00000 - N5500 W00530 - N5355 W00530 - N5427 W00803 - N5520 W00655 - N5828 W00604 - N5840 W00124 - N5500 E00000 FL040/250 STNR NC=



MET'MAP, your aeronautical weather chart ! - Copyright ORBIFLY December 2007 - Disclaimer

ORBIFLY MET'MAP TEAM :

Programming & Development : Alexandra Zaïnal
Concept & Development : Baudouin d'Aumeries
Co-Development & Prog : Marc-Olivier Méhu
Technical & hardware support : Manuel Goepfert

Contact : metmap@orbifly.com




SOURCES & CREDITS :

   NOAA